Time;durP1;ratioP1;P1;durP2;ratioP2;P2;SDS_P1;SDS_P2;PMS_P1;PMS_P2;Temp;Humidity;BMP_temperature;BMP_pressure;BME280_temperature;BME280_humidity;BME280_pressure;Samples;Min_cycle;Max_cycle;Signal;HPM_P1;HPM_P2
2022/09/24 00:01:32;;;;;;;8.00;6.50;;;;;;;7.03;100.00;100721.75;4982891;28;20220;-70
2022/09/24 00:04:00;;;;;;;6.43;5.80;;;;;;;7.05;100.00;100726.94;4980118;28;20211;-70
2022/09/24 00:06:28;;;;;;;7.53;6.37;;;;;;;7.01;100.00;100716.56;4969497;28;20777;-70
2022/09/24 00:08:56;;;;;;;7.50;6.13;;;;;;;7.03;100.00;100721.75;4983049;28;20207;-70
2022/09/24 00:11:24;;;;;;;9.27;6.53;;;;;;;7.06;100.00;100719.13;4980915;28;20197;-70
2022/09/24 00:13:52;;;;;;;6.63;5.93;;;;;;;7.02;100.00;100717.47;4984602;28;20210;-70
2022/09/24 00:16:20;;;;;;;7.07;6.13;;;;;;;7.08;100.00;100722.56;4984019;28;20214;-70
2022/09/24 00:18:47;;;;;;;8.00;5.83;;;;;;;7.13;100.00;100717.34;4978720;28;20700;-70
2022/09/24 00:21:16;;;;;;;7.47;6.23;;;;;;;7.10;100.00;100710.44;4982274;28;20238;-68
2022/09/24 00:23:42;;;;;;;7.23;6.47;;;;;;;7.11;100.00;100711.31;4985792;28;20696;-71
2022/09/24 00:28:54;;;;;;;8.63;5.90;;;;;;;7.13;100.00;100705.22;4984341;28;20202;-70
2022/09/24 00:31:20;;;;;;;6.73;5.83;;;;;;;7.17;100.00;100698.28;4989548;28;20200;-69
2022/09/24 00:33:51;;;;;;;7.63;5.47;;;;;;;7.18;100.00;100700.00;4982098;28;20209;-70
2022/09/24 00:36:18;;;;;;;7.73;6.43;;;;;;;7.21;100.00;100694.75;4986723;28;20215;-70
2022/09/24 00:38:48;;;;;;;8.20;5.67;;;;;;;7.22;100.00;100691.31;4987895;28;20203;-70
2022/09/24 00:41:15;;;;;;;9.57;6.70;;;;;;;7.27;100.00;100686.94;4983594;28;20226;-70
2022/09/24 00:43:41;;;;;;;6.67;5.60;;;;;;;7.31;100.00;100686.00;4983109;28;20554;-70
2022/09/24 00:46:16;;;;;;;7.10;6.27;;;;;;;7.27;100.00;100681.75;4978859;28;20717;-70
2022/09/24 00:48:43;;;;;;;6.43;5.83;;;;;;;7.28;100.00;100680.88;4985043;28;20204;-69
2022/09/24 00:51:14;;;;;;;6.97;5.80;;;;;;;7.30;100.00;100679.13;4966361;28;20189;-71
2022/09/24 00:53:43;;;;;;;6.23;5.07;;;;;;;7.33;100.00;100668.69;4982694;28;20306;-71
2022/09/24 00:56:14;;;;;;;6.67;5.73;;;;;;;7.36;100.00;100676.44;4980195;28;20215;-70
2022/09/24 00:58:43;;;;;;;8.70;5.97;;;;;;;7.38;100.00;100669.50;4982665;28;20205;-70
2022/09/24 01:01:10;;;;;;;6.83;5.43;;;;;;;7.38;100.00;100671.22;4983660;28;20217;-70
2022/09/24 01:03:41;;;;;;;7.00;5.63;;;;;;;7.40;100.00;100669.47;4983533;28;20806;-70
2022/09/24 01:06:08;;;;;;;5.30;4.63;;;;;;;7.37;100.00;100665.19;4980307;28;20533;-69
2022/09/24 01:08:37;;;;;;;7.47;6.23;;;;;;;7.36;100.00;100666.06;4982350;28;20558;-70
2022/09/24 01:11:15;;;;;;;6.90;5.43;;;;;;;7.38;100.00;100663.44;4984008;28;20274;-70
2022/09/24 01:13:58;;;;;;;7.77;5.43;;;;;;;7.39;100.00;100658.25;4978616;28;20194;-69
2022/09/24 01:16:32;;;;;;;5.93;5.37;;;;;;;7.48;100.00;100651.25;4980842;28;20225;-70
2022/09/24 01:19:08;;;;;;;6.70;5.37;;;;;;;7.50;100.00;100644.28;4982045;28;20684;-70
2022/09/24 01:21:39;;;;;;;7.30;5.47;;;;;;;7.49;100.00;100643.44;4981316;28;20228;-70
2022/09/24 01:24:19;;;;;;;7.13;5.40;;;;;;;7.51;100.00;100635.59;4981845;28;20527;-70
2022/09/24 01:27:00;;;;;;;7.10;5.20;;;;;;;7.54;100.00;100633.84;4978887;28;20220;-68
2022/09/24 01:29:40;;;;;;;6.67;5.50;;;;;;;7.55;100.00;100634.72;4978401;28;20201;-69
2022/09/24 01:32:11;;;;;;;5.97;4.90;;;;;;;7.57;100.00;100633.78;4962363;28;20201;-70
2022/09/24 01:34:42;;;;;;;5.80;5.20;;;;;;;7.55;100.00;100637.31;4982206;28;20206;-70
2022/09/24 01:37:09;;;;;;;6.40;5.60;;;;;;;7.57;100.00;100630.34;4980561;28;20201;-71
2022/09/24 01:39:37;;;;;;;6.57;5.13;;;;;;;7.56;100.00;100631.22;4982166;28;20216;-70
2022/09/24 01:42:06;;;;;;;7.63;5.63;;;;;;;7.56;100.00;100631.22;4982812;28;20613;-70
2022/09/24 01:44:36;;;;;;;6.20;5.20;;;;;;;7.55;100.00;100630.38;4980269;28;20271;-70
2022/09/24 01:47:05;;;;;;;5.53;5.00;;;;;;;7.55;100.00;100629.53;4983027;28;20608;-70
2022/09/24 01:49:31;;;;;;;5.57;4.97;;;;;;;7.56;100.00;100626.03;4980725;28;20201;-70
2022/09/24 01:52:01;;;;;;;5.90;5.30;;;;;;;7.57;100.00;100627.75;4985660;28;20200;-70
2022/09/24 01:54:32;;;;;;;7.97;5.00;;;;;;;7.59;100.00;100624.25;4978798;28;20729;-70
2022/09/24 01:57:03;;;;;;;5.90;5.17;;;;;;;7.59;100.00;100628.59;4981386;28;20208;-70
2022/09/24 01:59:36;;;;;;;6.03;4.63;;;;;;;7.59;100.00;100626.00;4973404;28;20202;-70
2022/09/24 02:02:09;;;;;;;7.07;4.83;;;;;;;7.54;100.00;100626.03;4979189;28;20220;-70
2022/09/24 02:04:41;;;;;;;6.33;5.23;;;;;;;7.57;100.00;100630.34;4980417;28;20193;-70
2022/09/24 02:07:12;;;;;;;5.57;5.00;;;;;;;7.56;100.00;100624.31;5025922;23;20242;-70
2022/09/24 02:09:41;;;;;;;5.47;4.87;;;;;;;7.56;100.00;100631.22;5023296;28;20258;-70
2022/09/24 02:12:11;;;;;;;5.13;4.50;;;;;;;7.55;100.00;100616.53;5019749;28;20206;-70
2022/09/24 02:14:44;;;;;;;7.77;5.33;;;;;;;7.56;100.00;100621.72;5023914;28;20211;-70
2022/09/24 02:17:15;;;;;;;5.63;4.90;;;;;;;7.58;100.00;100619.06;5001646;28;20212;-69
2022/09/24 02:19:42;;;;;;;6.27;5.20;;;;;;;7.56;100.00;100624.31;5001863;28;20223;-70
2022/09/24 02:22:12;;;;;;;4.90;4.50;;;;;;;7.58;100.00;100617.38;5002120;28;20224;-70
2022/09/24 02:24:46;;;;;;;5.13;4.40;;;;;;;7.61;100.00;100625.97;5001068;28;20668;-70
2022/09/24 02:27:13;;;;;;;5.90;4.60;;;;;;;7.58;100.00;100619.97;4997708;28;20239;-70
2022/09/24 02:29:39;;;;;;;5.70;5.10;;;;;;;7.62;100.00;100619.91;4999424;28;20826;-70
2022/09/24 02:32:08;;;;;;;4.40;4.00;;;;;;;7.62;100.00;100620.78;5007074;28;20204;-69
2022/09/24 02:34:39;;;;;;;5.20;4.27;;;;;;;7.59;100.00;100616.47;5001214;28;20199;-70
2022/09/24 02:37:10;;;;;;;4.90;4.20;;;;;;;7.59;100.00;100620.81;5004379;28;20488;-70
2022/09/24 02:39:37;;;;;;;5.63;4.73;;;;;;;7.62;100.00;100609.53;5007131;28;20236;-70
2022/09/24 02:42:05;;;;;;;5.93;4.30;;;;;;;7.63;100.00;100614.69;5003328;28;20220;-70
2022/09/24 02:44:32;;;;;;;4.73;4.27;;;;;;;7.66;100.00;100609.47;5001641;28;20192;-70
2022/09/24 02:46:58;;;;;;;4.83;4.37;;;;;;;7.64;100.00;100607.78;5002965;28;21791;-70
2022/09/24 02:49:25;;;;;;;5.00;4.50;;;;;;;7.65;100.00;100604.28;5005022;28;20214;-69
2022/09/24 02:51:52;;;;;;;6.23;3.97;;;;;;;7.63;100.00;100600.84;5004343;28;20196;-70
2022/09/24 02:54:19;;;;;;;4.53;4.10;;;;;;;7.64;100.00;100598.25;5002155;28;20196;-69
2022/09/24 02:56:45;;;;;;;6.40;4.20;;;;;;;7.61;100.00;100592.25;4999544;28;20627;-70
2022/09/24 02:59:12;;;;;;;5.27;4.60;;;;;;;7.64;100.00;100600.84;5001111;28;20196;-70
2022/09/24 03:01:38;;;;;;;4.43;4.03;;;;;;;7.64;100.00;100595.66;4996120;28;20307;-70
2022/09/24 03:04:04;;;;;;;4.73;4.00;;;;;;;7.64;100.00;100600.00;5004064;28;20204;-69
2022/09/24 03:06:31;;;;;;;7.03;4.03;;;;;;;7.67;100.00;100587.84;4999694;28;20224;-70
2022/09/24 03:08:59;;;;;;;5.20;3.90;;;;;;;7.67;100.00;100587.84;5001439;28;20229;-70
2022/09/24 03:11:26;;;;;;;5.93;4.50;;;;;;;7.66;100.00;100583.50;5002785;28;20278;-69
2022/09/24 03:13:52;;;;;;;5.07;4.07;;;;;;;7.66;100.00;100587.84;5006023;28;20209;-69
2022/09/24 03:16:19;;;;;;;4.30;3.90;;;;;;;7.70;100.00;100585.16;4998619;28;20228;-70
2022/09/24 03:18:46;;;;;;;5.13;4.23;;;;;;;7.69;100.00;100591.25;5003940;28;20216;-69
2022/09/24 03:21:15;;;;;;;4.90;3.90;;;;;;;7.65;100.00;100581.81;5000876;28;20216;-70
2022/09/24 03:23:41;;;;;;;4.30;3.90;;;;;;;7.66;100.00;100586.09;5000064;28;20675;-68
2022/09/24 03:26:09;;;;;;;4.97;4.00;;;;;;;7.66;100.00;100580.06;4996767;28;20267;-69
2022/09/24 03:28:37;;;;;;;5.13;3.70;;;;;;;7.64;100.00;100568.84;5005344;28;20664;-69
2022/09/24 03:31:04;;;;;;;4.47;4.00;;;;;;;7.64;100.00;100577.47;4999745;28;20268;-70
2022/09/24 03:33:33;;;;;;;5.33;3.77;;;;;;;7.65;100.00;100581.81;5005531;28;20220;-69
2022/09/24 03:36:01;;;;;;;4.43;4.03;;;;;;;7.61;100.00;100580.13;5001178;28;20590;-68
2022/09/24 03:38:28;;;;;;;6.60;4.20;;;;;;;7.60;100.00;100581.00;5002403;28;20247;-70
2022/09/24 03:40:54;;;;;;;4.77;4.03;;;;;;;7.58;100.00;100577.56;4999916;28;20702;-69
2022/09/24 03:43:23;;;;;;;4.60;4.13;;;;;;;7.57;100.00;100575.88;5001469;28;20197;-68
2022/09/24 03:45:49;;;;;;;6.53;4.20;;;;;;;7.52;100.00;100575.91;4999624;28;20229;-70
2022/09/24 03:48:16;;;;;;;4.93;3.63;;;;;;;7.46;100.00;100573.44;5001740;28;20203;-70
2022/09/24 03:50:43;;;;;;;6.00;4.07;;;;;;;7.46;100.00;100570.84;5002523;28;20196;-69
2022/09/24 03:53:10;;;;;;;4.60;4.10;;;;;;;7.50;100.00;100569.06;5004936;28;20211;-69
2022/09/24 03:55:42;;;;;;;5.87;4.30;;;;;;;7.47;100.00;100569.09;5004588;28;20314;-69
2022/09/24 03:58:09;;;;;;;4.93;4.03;;;;;;;7.45;100.00;100573.44;5009229;28;20196;-70
2022/09/24 04:00:37;;;;;;;4.53;4.13;;;;;;;7.45;100.00;100566.50;5002206;28;20193;-69
2022/09/24 04:03:03;;;;;;;5.70;4.47;;;;;;;7.40;100.00;100563.13;5005118;28;20266;-70
2022/09/24 04:05:30;;;;;;;6.00;4.17;;;;;;;7.40;100.00;100563.13;5002904;28;20228;-70
2022/09/24 04:07:57;;;;;;;5.27;4.17;;;;;;;7.41;100.00;100564.00;5005484;28;20219;-69
2022/09/24 04:10:23;;;;;;;5.97;4.97;;;;;;;7.42;100.00;100565.69;5006069;28;20207;-70
2022/09/24 04:12:51;;;;;;;6.00;4.43;;;;;;;7.42;100.00;100563.94;5005242;28;20208;-70
2022/09/24 04:15:17;;;;;;;5.70;4.77;;;;;;;7.39;100.00;100564.88;5006246;28;20234;-70
2022/09/24 04:17:50;;;;;;;7.07;5.00;;;;;;;7.41;100.00;100561.41;5002836;28;20286;-69
2022/09/24 04:20:18;;;;;;;5.73;4.33;;;;;;;7.42;100.00;100560.50;4999407;28;20603;-70
2022/09/24 04:22:45;;;;;;;6.90;4.73;;;;;;;7.41;100.00;100556.22;5001598;28;20701;-70
2022/09/24 04:25:11;;;;;;;6.80;5.20;;;;;;;7.43;100.00;100555.31;5001737;28;20203;-70
2022/09/24 04:27:38;;;;;;;7.37;5.30;;;;;;;7.41;100.00;100554.47;4982153;28;20223;-70
2022/09/24 04:30:05;;;;;;;7.73;5.57;;;;;;;7.43;100.00;100551.88;5005606;28;20205;-68
2022/09/24 04:32:31;;;;;;;7.63;4.63;;;;;;;7.41;100.00;100549.28;5003700;28;20203;-70
2022/09/24 04:34:59;;;;;;;7.93;5.43;;;;;;;7.43;100.00;100551.88;5007623;28;20215;-70
2022/09/24 04:37:25;;;;;;;5.93;4.97;;;;;;;7.43;100.00;100549.28;5006316;28;20224;-70
2022/09/24 04:39:52;;;;;;;6.07;4.90;;;;;;;7.42;100.00;100550.13;5008400;28;20567;-70
2022/09/24 04:42:18;;;;;;;6.43;5.30;;;;;;;7.45;100.00;100543.16;5004423;28;20409;-69
2022/09/24 04:44:46;;;;;;;8.50;5.90;;;;;;;7.48;100.00;100552.66;5006085;28;20211;-69
2022/09/24 04:47:13;;;;;;;7.50;5.63;;;;;;;7.46;100.00;100563.06;5001837;28;20227;-70
2022/09/24 04:49:39;;;;;;;6.83;5.90;;;;;;;7.46;100.00;100557.88;5005056;28;20232;-69
2022/09/24 04:52:07;;;;;;;8.03;6.53;;;;;;;7.46;100.00;100560.47;5001325;28;20214;-69
2022/09/24 04:54:33;;;;;;;6.50;5.77;;;;;;;7.51;100.00;100563.84;5003830;28;20608;-70
2022/09/24 04:57:00;;;;;;;6.57;5.20;;;;;;;7.49;100.00;100559.53;5002259;28;20716;-70
2022/09/24 04:59:26;;;;;;;5.33;4.73;;;;;;;7.54;100.00;100557.75;5006180;28;20556;-70
2022/09/24 05:01:53;;;;;;;6.17;5.40;;;;;;;7.54;100.00;100563.78;5000164;28;20235;-70
2022/09/24 05:04:19;;;;;;;8.57;6.80;;;;;;;7.56;100.00;100558.56;5005226;28;20205;-69
2022/09/24 05:06:46;;;;;;;12.70;7.50;;;;;;;7.55;100.00;100557.72;5000850;28;20228;-70
2022/09/24 05:09:14;;;;;;;12.13;7.07;;;;;;;7.56;100.00;100548.19;5006191;28;20200;-70
2022/09/24 05:11:40;;;;;;;33.30;16.87;;;;;;;7.60;100.00;100549.88;4999725;28;20201;-69
2022/09/24 05:14:07;;;;;;;48.67;22.20;;;;;;;7.61;100.00;100543.78;5005590;28;20533;-70
2022/09/24 05:16:33;;;;;;;32.07;18.23;;;;;;;7.64;100.00;100548.94;5001633;28;20232;-70
2022/09/24 05:19:00;;;;;;;21.60;14.47;;;;;;;7.72;100.00;100547.09;5003761;28;20731;-69
2022/09/24 05:21:27;;;;;;;17.87;11.13;;;;;;;7.73;100.00;100547.94;5003439;28;20961;-70
2022/09/24 05:23:54;;;;;;;9.67;7.93;;;;;;;7.75;100.00;100544.44;5007955;28;20205;-69
2022/09/24 05:29:05;;;;;;;7.10;5.80;;;;;;;7.81;100.00;100546.09;5006045;28;20673;-69
2022/09/24 05:31:32;;;;;;;7.17;5.63;;;;;;;7.86;100.00;100538.22;5002849;28;20673;-70
2022/09/24 05:33:58;;;;;;;8.80;7.90;;;;;;;7.91;100.00;100539.84;5002249;28;20205;-69
2022/09/24 05:36:25;;;;;;;7.13;6.37;;;;;;;7.99;100.00;100538.88;4998639;28;20229;-70
2022/09/24 05:38:52;;;;;;;9.57;7.17;;;;;;;8.04;100.00;100540.53;5003370;28;20229;-70
2022/09/24 05:41:21;;;;;;;9.70;6.03;;;;;;;8.05;100.00;100538.78;4996686;28;20406;-70
2022/09/24 05:43:48;;;;;;;7.60;6.60;;;;;;;8.13;100.00;100545.53;5004825;28;20607;-70
2022/09/24 05:46:14;;;;;;;8.77;6.30;;;;;;;8.20;100.00;100546.31;4999839;28;20232;-70
2022/09/24 05:48:41;;;;;;;12.70;9.20;;;;;;;8.23;100.00;100543.66;5001210;28;20197;-70
2022/09/24 05:51:07;;;;;;;14.17;10.20;;;;;;;8.25;100.00;100556.59;5001061;28;20197;-69
2022/09/24 05:53:34;;;;;;;12.93;9.47;;;;;;;8.27;100.00;100553.09;5006879;28;20204;-70
2022/09/24 05:56:00;;;;;;;12.73;8.67;;;;;;;8.31;100.00;100557.34;5002085;28;20597;-70
2022/09/24 05:58:28;;;;;;;10.43;7.40;;;;;;;8.35;100.00;100555.56;5010050;28;20207;-69
2022/09/24 06:00:54;;;;;;;10.20;6.53;;;;;;;8.41;100.00;100551.97;5000463;28;20215;-70
2022/09/24 06:03:21;;;;;;;7.77;5.63;;;;;;;8.44;100.00;100559.75;5004220;28;20284;-70
2022/09/24 06:05:49;;;;;;;7.97;4.93;;;;;;;8.43;100.00;100556.31;5002067;28;20238;-70
2022/09/24 06:08:16;;;;;;;7.80;5.23;;;;;;;8.51;100.00;100563.94;5000626;28;20627;-70
2022/09/24 06:10:46;;;;;;;6.63;4.20;;;;;;;8.57;100.00;100565.59;4996341;28;20356;-68
2022/09/24 06:13:13;;;;;;;6.57;4.70;;;;;;;8.56;100.00;100572.53;4996472;28;20283;-70
2022/09/24 06:15:41;;;;;;;4.47;4.00;;;;;;;8.60;100.00;100570.72;5002999;28;20221;-70
2022/09/24 06:18:08;;;;;;;4.10;3.70;;;;;;;8.59;100.00;100574.22;4996000;28;20775;-69
2022/09/24 06:20:35;;;;;;;4.47;3.87;;;;;;;8.62;100.00;100568.94;5000500;28;20203;-70
2022/09/24 06:23:02;;;;;;;5.33;4.13;;;;;;;8.64;100.00;100580.19;4993874;28;20225;-70
2022/09/24 06:25:29;;;;;;;6.13;4.00;;;;;;;8.68;100.00;100579.25;4992269;28;20299;-69
2022/09/24 06:27:59;;;;;;;4.63;3.80;;;;;;;8.71;100.00;100587.84;5001930;28;20546;-70
2022/09/24 06:30:26;;;;;;;4.93;4.17;;;;;;;8.79;100.00;100577.28;5001981;28;20200;-70
2022/09/24 06:32:54;;;;;;;6.80;4.47;;;;;;;8.81;100.00;100585.06;5000035;28;20204;-70
2022/09/24 06:35:21;;;;;;;5.57;3.77;;;;;;;8.87;100.00;100582.34;5005342;28;20200;-68
2022/09/24 06:37:48;;;;;;;4.30;3.90;;;;;;;8.95;100.00;100572.63;5003644;28;20208;-70
2022/09/24 06:40:15;;;;;;;5.17;4.17;;;;;;;8.97;100.00;100573.47;5000575;28;20201;-70
2022/09/24 06:42:41;;;;;;;5.00;3.80;;;;;;;9.01;100.00;100567.31;5002775;28;20232;-69
2022/09/24 06:45:09;;;;;;;4.60;3.80;;;;;;;9.12;100.00;100581.84;4983617;28;20624;-70
2022/09/24 06:47:35;;;;;;;4.77;3.57;;;;;;;9.19;100.00;100583.44;4999074;28;20565;-70
2022/09/24 06:50:03;;;;;;;5.43;3.90;;;;;;;9.27;100.00;100586.75;5006499;28;20202;-69
2022/09/24 06:52:29;;;;;;;6.27;3.70;;;;;;;9.33;100.00;100585.75;4997827;28;20711;-70
2022/09/24 06:54:56;;;;;;;5.13;3.27;;;;;;;9.39;100.00;100593.41;4985650;28;20217;-70
2022/09/24 06:57:22;;;;;;;3.53;3.17;;;;;;;9.47;100.00;100597.56;4997853;28;20276;-70
2022/09/24 06:59:50;;;;;;;4.10;3.40;;;;;;;9.53;100.00;100599.16;5003185;28;20716;-70
2022/09/24 07:02:16;;;;;;;4.13;3.50;;;;;;;9.61;100.00;100596.41;4995121;28;20269;-69
2022/09/24 07:04:42;;;;;;;4.67;3.30;;;;;;;9.62;100.00;100598.09;4999296;28;20206;-70
2022/09/24 07:09:54;;;;;;;4.77;3.40;;;;;;;9.73;100.00;100603.09;4998061;28;20206;-70
2022/09/24 07:12:21;;;;;;;6.07;3.30;;;;;;;9.73;100.00;100603.09;4996395;28;20211;-68
2022/09/24 07:14:47;;;;;;;8.13;5.73;;;;;;;9.77;100.00;100604.72;4994673;28;20866;-70
2022/09/24 07:17:13;;;;;;;6.70;4.57;;;;;;;9.85;100.00;100595.84;4996648;28;20246;-70
2022/09/24 07:19:40;;;;;;;4.77;4.23;;;;;;;9.86;100.00;100601.88;4998661;28;20656;-70
2022/09/24 07:22:06;;;;;;;4.23;3.50;;;;;;;9.94;100.00;100599.13;4998590;28;20228;-69
2022/09/24 07:24:34;;;;;;;4.33;3.43;;;;;;;10.00;100.00;100597.19;4999262;28;20204;-70
2022/09/24 07:27:00;;;;;;;6.50;3.77;;;;;;;10.11;100.00;100602.16;4998618;28;20601;-70
2022/09/24 07:29:28;;;;;;;6.27;3.60;;;;;;;10.18;100.00;100605.47;4998640;28;20280;-70
2022/09/24 07:31:54;;;;;;;5.27;3.40;;;;;;;10.28;100.00;100608.72;5000538;28;20218;-69
2022/09/24 07:34:21;;;;;;;6.67;3.97;;;;;;;10.35;100.00;100608.53;5006283;28;20367;-70
2022/09/24 07:36:47;;;;;;;5.73;3.40;;;;;;;10.38;100.00;100611.06;5003904;28;20692;-69
2022/09/24 07:39:14;;;;;;;4.27;3.03;;;;;;;10.45;100.00;100610.91;5000710;28;20203;-70
2022/09/24 07:41:42;;;;;;;4.33;3.43;;;;;;;10.50;100.00;100609.91;4997969;28;20205;-69
2022/09/24 07:44:08;;;;;;;4.70;4.17;;;;;;;10.56;100.00;100612.34;4997181;28;20261;-71
2022/09/24 07:46:35;;;;;;;4.73;3.33;;;;;;;10.66;100.00;100617.31;5002967;28;20217;-70
2022/09/24 07:49:01;;;;;;;4.63;3.10;;;;;;;10.67;100.00;100619.03;4999985;28;20193;-70
2022/09/24 07:51:28;;;;;;;4.30;3.30;;;;;;;10.74;100.00;100621.41;4998683;28;20211;-70
2022/09/24 07:53:56;;;;;;;7.30;5.03;;;;;;;10.77;100.00;100617.88;4999365;28;20611;-70
2022/09/24 07:56:23;;;;;;;6.60;4.40;;;;;;;10.83;100.00;100614.25;4996679;28;20232;-70
2022/09/24 07:58:51;;;;;;;4.70;3.07;;;;;;;10.85;100.00;100602.03;5000179;28;20203;-69
2022/09/24 08:01:18;;;;;;;4.43;3.40;;;;;;;10.87;100.00;100606.31;5003543;28;20211;-69
2022/09/24 08:03:45;;;;;;;4.10;3.27;;;;;;;10.91;100.00;100607.94;4999564;28;20232;-70
2022/09/24 08:06:11;;;;;;;4.37;3.37;;;;;;;10.99;100.00;100602.47;5021652;23;20505;-70
2022/09/24 08:08:38;;;;;;;3.70;3.00;;;;;;;11.09;100.00;100603.09;5039497;28;20474;-73
2022/09/24 08:11:05;;;;;;;3.50;3.07;;;;;;;11.15;100.00;100602.91;5040298;28;20227;-73
2022/09/24 08:13:32;;;;;;;4.10;3.17;;;;;;;11.24;100.00;100600.06;5036539;28;20200;-71
2022/09/24 08:16:01;;;;;;;4.23;3.10;;;;;;;11.33;100.00;100598.94;5041906;28;20222;-70
2022/09/24 08:18:30;;;;;;;4.50;3.43;;;;;;;11.47;100.00;100601.97;5040208;28;20188;-70
2022/09/24 08:20:56;;;;;;;4.90;3.17;;;;;;;11.62;100.00;100598.03;5043696;28;20224;-72
2022/09/24 08:23:23;;;;;;;6.53;4.93;;;;;;;11.75;100.00;100594.13;5039729;28;20698;-70
2022/09/24 08:25:49;;;;;;;4.07;2.60;;;;;;;11.87;100.00;100598.13;5036947;28;20207;-70
2022/09/24 08:28:18;;;;;;;4.00;2.90;;;;;;;12.00;100.00;100595.16;5032703;28;20211;-70
2022/09/24 08:30:45;;;;;;;3.37;2.80;;;;;;;12.14;100.00;100606.00;5038607;28;20445;-70
2022/09/24 08:33:14;;;;;;;3.27;2.97;;;;;;;12.32;100.00;100596.69;5042026;28;20767;-70
2022/09/24 08:35:40;;;;;;;3.13;2.77;;;;;;;12.49;100.00;100609.19;5037982;28;20256;-70
2022/09/24 08:38:07;;;;;;;3.37;3.07;;;;;;;12.72;100.00;100607.53;5040182;28;20223;-70
2022/09/24 08:40:38;;;;;;;3.40;2.43;;;;;;;12.87;100.00;100607.84;5034015;28;20216;-73
2022/09/24 08:43:14;;;;;;;3.43;2.70;;;;;;;13.01;100.00;100604.72;5040932;28;20894;-72
2022/09/24 08:48:35;;;;;;;3.77;2.80;;;;;;;13.27;100.00;100605.53;5037503;28;20553;-71
2022/09/24 08:51:08;;;;;;;2.50;2.30;;;;;;;13.39;100.00;100617.34;5041746;28;20230;-70
2022/09/24 08:53:45;;;;;;;4.17;2.70;;;;;;;13.40;100.00;100617.28;5029068;28;20466;-73
2022/09/24 08:56:12;;;;;;;3.47;2.63;;;;;;;13.59;100.00;100611.31;5040987;28;20413;-70
2022/09/24 08:58:45;;;;;;;4.17;3.00;;;;;;;13.67;100.00;100627.63;5040318;28;20221;-70
2022/09/24 09:01:20;;;;;;;3.40;2.73;;;;;;;13.74;100.00;100626.47;5038491;28;20348;-70
2022/09/24 09:03:54;;;;;;;3.13;2.50;;;;;;;13.76;100.00;100622.00;5042459;28;20229;-70
2022/09/24 09:06:39;;;;;;;3.10;2.50;;;;;;;13.81;100.00;100627.91;5036142;28;20239;-72
2022/09/24 09:09:11;;;;;;;3.13;2.40;;;;;;;13.83;100.00;100620.00;5037204;28;20195;-72
2022/09/24 09:11:39;;;;;;;3.57;2.50;;;;;;;13.77;100.00;100628.97;5039172;28;20212;-70
2022/09/24 09:14:12;;;;;;;3.23;2.37;;;;;;;13.78;100.00;100625.41;5041938;28;20204;-71
2022/09/24 09:16:47;;;;;;;3.10;2.63;;;;;;;13.76;100.00;100627.25;5042596;28;20253;-72
2022/09/24 09:19:17;;;;;;;2.70;2.43;;;;;;;13.77;100.00;100620.22;5042367;28;20396;-70
2022/09/24 09:21:46;;;;;;;3.47;2.47;;;;;;;13.83;100.00;100628.72;5023531;28;20677;-71
2022/09/24 09:24:17;;;;;;;3.57;3.03;;;;;;;13.82;100.00;100611.28;5036315;28;20224;-70
2022/09/24 09:26:48;;;;;;;4.23;2.83;;;;;;;13.81;100.00;100611.34;5038778;28;20203;-70
2022/09/24 09:29:14;;;;;;;4.30;2.50;;;;;;;13.85;100.00;100620.78;5037699;28;20215;-71
2022/09/24 09:31:49;;;;;;;4.30;2.60;;;;;;;13.88;100.00;100625.91;5041564;28;20543;-70
2022/09/24 09:34:34;;;;;;;4.23;2.40;;;;;;;14.02;100.00;100622.75;5034398;28;20199;-70
2022/09/24 09:37:11;;;;;;;3.53;2.43;;;;;;;14.10;100.00;100625.03;5042144;28;20278;-71
2022/09/24 09:39:45;;;;;;;2.87;2.40;;;;;;;14.15;100.00;100625.72;5036168;28;20222;-73
2022/09/24 09:42:30;;;;;;;2.47;2.27;;;;;;;14.12;100.00;100626.66;5036358;28;20213;-71
2022/09/24 09:45:01;;;;;;;2.87;2.30;;;;;;;14.20;100.00;100637.72;5043191;28;20574;-71
2022/09/24 09:47:40;;;;;;;2.80;2.37;;;;;;;14.26;100.00;100628.72;5039519;28;20207;-72
2022/09/24 09:50:26;;;;;;;3.00;2.27;;;;;;;14.33;100.00;100621.47;5036590;28;20217;-70
2022/09/24 09:52:53;;;;;;;3.13;2.50;;;;;;;14.45;100.00;100625.34;5019145;28;20210;-70
2022/09/24 09:55:22;;;;;;;3.03;2.30;;;;;;;14.53;100.00;100629.34;5032086;28;20203;-72
2022/09/24 09:57:50;;;;;;;2.90;2.60;;;;;;;14.65;100.00;100633.28;5040482;28;20253;-70
2022/09/24 10:00:26;;;;;;;4.53;2.37;;;;;;;14.76;100.00;100638.91;5039174;28;20722;-70
2022/09/24 10:02:53;;;;;;;3.57;2.60;;;;;;;14.89;100.00;100630.47;5036530;28;20265;-71
2022/09/24 10:05:24;;;;;;;4.33;2.87;;;;;;;14.89;100.00;100626.06;5034236;28;20199;-71
2022/09/24 10:07:50;;;;;;;2.47;2.27;;;;;;;14.85;100.00;100632.41;5039542;28;20218;-71
2022/09/24 10:10:22;;;;;;;3.80;2.70;;;;;;;14.93;100.00;100632.03;5035760;28;20810;-70
2022/09/24 10:12:51;;;;;;;2.87;2.30;;;;;;;15.03;100.00;100628.09;5046790;28;20226;-71
2022/09/24 10:15:19;;;;;;;2.73;2.20;;;;;;;15.05;100.00;100630.66;5033788;28;20393;-70
2022/09/24 10:17:48;;;;;;;3.03;2.60;;;;;;;15.04;100.00;100636.81;5038929;28;20257;-70
2022/09/24 10:20:18;;;;;;;3.00;2.20;;;;;;;15.09;100.00;100630.47;5034343;28;20227;-70
2022/09/24 10:22:51;;;;;;;3.10;2.60;;;;;;;15.12;100.00;100629.47;5040109;28;20537;-70
2022/09/24 10:25:20;;;;;;;3.43;2.30;;;;;;;15.08;100.00;100626.13;5038228;28;20199;-73
2022/09/24 10:27:47;;;;;;;3.07;2.50;;;;;;;15.17;100.00;100627.47;5037667;28;20204;-70
2022/09/24 10:30:33;;;;;;;3.10;2.53;;;;;;;15.21;100.00;100630.81;5041890;28;20699;-73
2022/09/24 10:33:02;;;;;;;2.73;2.07;;;;;;;15.27;100.00;100634.03;5037954;28;20207;-71
2022/09/24 10:35:32;;;;;;;3.13;2.40;;;;;;;15.28;100.00;100619.94;5034957;28;20206;-70
2022/09/24 10:38:00;;;;;;;3.10;2.77;;;;;;;15.39;100.00;100629.13;5036601;28;20208;-70
2022/09/24 10:40:29;;;;;;;3.17;2.67;;;;;;;15.58;100.00;100623.88;5040338;28;20617;-70
2022/09/24 10:42:57;;;;;;;2.47;2.27;;;;;;;15.75;100.00;100626.59;5035349;28;20207;-72
2022/09/24 10:45:35;;;;;;;3.60;2.83;;;;;;;15.89;100.00;100624.13;5038816;28;20570;-71
2022/09/24 10:48:10;;;;;;;3.13;2.83;;;;;;;15.99;96.25;100627.19;5043839;28;20654;-71
2022/09/24 10:50:43;;;;;;;2.83;2.43;;;;;;;16.07;100.00;100629.44;5048631;28;20237;-72
2022/09/24 10:53:15;;;;;;;2.30;2.10;;;;;;;16.04;100.00;100621.69;5033856;28;20968;-70
2022/09/24 10:55:53;;;;;;;3.30;2.57;;;;;;;16.06;96.31;100619.84;5035522;28;20203;-72
2022/09/24 10:59:00;;;;;;;2.50;2.30;;;;;;;16.08;98.14;100618.84;5035145;28;20218;-71
2022/09/24 11:01:35;;;;;;;3.80;2.30;;;;;;;16.12;88.22;100616.91;5034976;28;20567;-72
2022/09/24 11:04:22;;;;;;;2.23;2.03;;;;;;;16.22;88.76;100615.53;5039960;28;20214;-73
2022/09/24 11:07:07;;;;;;;6.47;2.50;;;;;;;16.33;92.93;100614.16;5042542;28;20218;-70
2022/09/24 11:09:42;;;;;;;2.53;2.30;;;;;;;16.44;98.37;100610.03;5046283;28;20426;-70
2022/09/24 11:12:19;;;;;;;2.40;2.20;;;;;;;16.41;94.53;100604.06;5052741;28;20210;-74
2022/09/24 11:15:03;;;;;;;2.93;2.50;;;;;;;16.53;100.00;100600.81;5044266;28;20261;-70
2022/09/24 11:17:36;;;;;;;2.03;1.83;;;;;;;16.53;85.33;100615.75;5039221;28;20209;-71
2022/09/24 11:20:23;;;;;;;2.33;2.00;;;;;;;16.53;78.21;100610.50;5045764;28;20731;-70
2022/09/24 11:23:16;;;;;;;2.50;2.20;;;;;;;16.72;80.90;100603.34;5044124;28;20225;-70
2022/09/24 11:25:54;;;;;;;2.97;2.17;;;;;;;16.81;74.56;100609.91;5038372;28;20206;-71
2022/09/24 11:28:38;;;;;;;3.87;1.83;;;;;;;16.96;79.09;100608.31;5045004;28;20706;-70
2022/09/24 11:31:12;;;;;;;2.33;2.13;;;;;;;17.08;76.16;100602.38;5047246;28;20588;-70
2022/09/24 11:33:58;;;;;;;2.93;2.37;;;;;;;17.18;70.92;100608.84;5041931;28;20264;-71
2022/09/24 11:36:38;;;;;;;2.60;2.03;;;;;;;17.32;71.85;100605.44;5043624;28;20199;-70
2022/09/24 11:39:21;;;;;;;2.20;1.80;;;;;;;17.32;68.50;100609.88;5045646;28;20203;-72
2022/09/24 11:41:57;;;;;;;2.70;2.20;;;;;;;17.38;69.18;100609.56;5039947;28;20218;-71
2022/09/24 11:44:49;;;;;;;2.30;2.10;;;;;;;17.41;72.90;100606.72;5042327;28;20234;-71